Time;durP1;ratioP1;P1;durP2;ratioP2;P2;SDS_P1;SDS_P2;PMS_P1;PMS_P2;Temp;Humidity;BMP_temperature;BMP_pressure;BME280_temperature;BME280_humidity;BME280_pressure;Samples;Min_cycle;Max_cycle;Signal;HPM_P1;HPM_P2
2023/12/06 00:02:10;;;;;;;1999.90;999.90;;;;;;;7.49;68.10;100877.41;10417692;28;20053;-66
2023/12/06 00:07:12;;;;;;;1999.90;999.90;;;;;;;7.45;68.63;100881.91;10417551;28;20055;-66
2023/12/06 00:12:14;;;;;;;1999.90;999.90;;;;;;;7.01;69.76;100880.25;10418540;28;20057;-66
2023/12/06 00:17:17;;;;;;;1999.90;999.90;;;;;;;7.49;68.40;100890.44;10418455;28;20385;-66
2023/12/06 00:22:19;;;;;;;1999.90;999.90;;;;;;;7.58;68.92;100885.69;10417113;28;20072;-67
2023/12/06 00:27:21;;;;;;;1999.90;999.90;;;;;;;6.92;69.61;100896.25;10418310;28;20129;-67
2023/12/06 00:32:24;;;;;;;1999.90;999.90;;;;;;;7.69;69.30;100895.63;10417882;28;20493;-67
2023/12/06 00:37:27;;;;;;;1999.90;999.90;;;;;;;7.67;68.00;100907.88;10417487;28;20053;-67
2023/12/06 00:42:29;;;;;;;1999.90;999.90;;;;;;;7.57;68.73;100906.59;10417548;28;20053;-66
2023/12/06 00:47:31;;;;;;;1999.90;999.90;;;;;;;7.44;69.56;100908.84;10416691;28;20488;-65
2023/12/06 00:52:34;;;;;;;1999.90;999.90;;;;;;;8.11;68.66;100910.25;10415758;28;20058;-66
2023/12/06 00:57:36;;;;;;;1999.90;999.90;;;;;;;7.35;70.91;100930.94;10416784;28;20080;-66
2023/12/06 01:02:39;;;;;;;1999.90;999.90;;;;;;;7.64;69.74;100928.84;10416579;28;20064;-66
2023/12/06 01:07:42;;;;;;;1999.90;999.90;;;;;;;7.37;71.28;100936.09;10416180;28;20056;-66
2023/12/06 01:12:44;;;;;;;1999.90;999.90;;;;;;;7.85;69.76;100940.13;10416116;28;20057;-66
2023/12/06 01:17:47;;;;;;;1999.90;999.90;;;;;;;7.71;69.38;100951.13;10416020;28;20500;-65
2023/12/06 01:22:49;;;;;;;1999.90;999.90;;;;;;;7.93;69.61;100958.84;10415862;28;20085;-66
2023/12/06 01:27:51;;;;;;;1999.90;999.90;;;;;;;7.44;70.23;100974.00;10415721;28;20041;-65
2023/12/06 01:32:54;;;;;;;1999.90;999.90;;;;;;;7.23;72.41;100973.97;10415679;28;20049;-66
2023/12/06 01:37:56;;;;;;;1999.90;999.90;;;;;;;7.51;73.05;100978.03;10415488;28;20053;-66
2023/12/06 01:42:59;;;;;;;1999.90;999.90;;;;;;;7.50;71.66;100980.69;10415424;28;20060;-66
2023/12/06 01:48:03;;;;;;;1999.90;999.90;;;;;;;7.61;70.96;100979.31;10413903;28;20049;-66
2023/12/06 01:53:05;;;;;;;1999.90;999.90;;;;;;;8.05;70.61;100988.75;10413715;28;20057;-67
2023/12/06 01:58:08;;;;;;;1999.90;999.90;;;;;;;7.38;72.85;100995.06;10415859;28;20041;-66
2023/12/06 02:03:10;;;;;;;1999.90;999.90;;;;;;;7.81;71.07;100996.72;10423449;28;20508;-66
2023/12/06 02:08:13;;;;;;;1999.90;999.90;;;;;;;7.67;73.01;101003.47;10422172;28;20088;-66
2023/12/06 02:13:17;;;;;;;1999.90;999.90;;;;;;;7.77;72.30;100997.78;10405911;28;20061;-66
2023/12/06 02:18:20;;;;;;;1999.90;999.90;;;;;;;7.71;70.98;100997.19;10422953;28;20068;-66
2023/12/06 02:23:25;;;;;;;1999.90;999.90;;;;;;;7.34;75.22;101004.78;10421618;28;20045;-66
2023/12/06 02:28:27;;;;;;;1999.90;999.90;;;;;;;7.76;73.63;101003.91;10421580;28;20050;-65
2023/12/06 02:33:31;;;;;;;1999.90;999.90;;;;;;;8.42;71.95;101002.78;10422429;28;20049;-66
2023/12/06 02:38:35;;;;;;;1999.90;999.90;;;;;;;7.95;71.62;101003.13;10420929;28;20480;-66
2023/12/06 02:43:37;;;;;;;1999.90;999.90;;;;;;;7.91;72.37;101012.00;10420734;28;20452;-65
2023/12/06 02:48:40;;;;;;;1999.90;999.90;;;;;;;7.87;73.52;101018.22;10404286;28;20077;-66
2023/12/06 02:53:43;;;;;;;1999.90;999.90;;;;;;;7.92;73.45;101013.69;10420302;28;20065;-66
2023/12/06 02:58:45;;;;;;;1999.90;999.90;;;;;;;7.61;74.82;101018.41;10420215;28;20055;-66
2023/12/06 03:03:48;;;;;;;1999.90;999.90;;;;;;;8.22;73.62;101018.47;10421162;28;20053;-66
2023/12/06 03:08:50;;;;;;;1999.90;999.90;;;;;;;7.81;74.12;101024.56;10426921;22;20144;-62
2023/12/06 03:13:53;;;;;;;1999.90;999.90;;;;;;;7.25;75.24;101021.63;10420775;28;20056;-63
2023/12/06 03:18:55;;;;;;;1999.90;999.90;;;;;;;8.29;72.18;101017.31;10420781;28;20076;-62
2023/12/06 03:23:58;;;;;;;1999.90;999.90;;;;;;;8.11;72.55;101019.78;10419276;28;20076;-62
2023/12/06 03:29:00;;;;;;;1999.90;999.90;;;;;;;8.24;72.10;101019.25;10420147;28;20540;-62
2023/12/06 03:34:02;;;;;;;1999.90;999.90;;;;;;;8.48;71.29;101026.03;10420211;28;20081;-62
2023/12/06 03:39:06;;;;;;;1999.90;999.90;;;;;;;8.25;74.64;101040.06;10420099;28;20136;-62
2023/12/06 03:44:08;;;;;;;1999.90;999.90;;;;;;;8.04;74.80;101034.03;10419677;28;20447;-62
2023/12/06 03:49:11;;;;;;;1999.90;999.90;;;;;;;8.03;73.92;101047.97;10418296;28;20079;-62
2023/12/06 03:54:13;;;;;;;1999.90;999.90;;;;;;;8.57;71.54;101037.81;10419461;28;20145;-62
2023/12/06 03:59:16;;;;;;;1999.90;999.90;;;;;;;8.44;71.93;101037.53;10419175;28;20041;-62
2023/12/06 04:04:18;;;;;;;1999.90;999.90;;;;;;;8.28;72.92;101044.31;10417745;28;20409;-63
2023/12/06 04:09:21;;;;;;;1999.90;999.90;;;;;;;8.12;73.30;101059.75;10417315;28;20489;-63
2023/12/06 04:14:23;;;;;;;1999.90;999.90;;;;;;;8.00;73.32;101063.72;10417310;28;20404;-63
2023/12/06 04:19:27;;;;;;;1999.90;999.90;;;;;;;7.46;75.35;101068.56;10418443;28;20081;-62
2023/12/06 04:24:30;;;;;;;1999.90;999.90;;;;;;;7.97;74.67;101069.94;10416447;28;20053;-62
2023/12/06 04:29:32;;;;;;;1999.90;999.90;;;;;;;8.59;72.38;101064.72;10418006;28;20053;-62
2023/12/06 04:34:48;;;;;;;1999.90;999.90;;;;;;;8.32;74.87;101077.16;10417778;28;20129;-61
2023/12/06 04:39:51;;;;;;;1999.90;999.90;;;;;;;8.23;75.33;101074.97;10416552;28;20077;-62
2023/12/06 04:44:53;;;;;;;1999.90;999.90;;;;;;;8.08;74.29;101081.69;10416044;28;20057;-62
2023/12/06 04:49:56;;;;;;;1999.90;999.90;;;;;;;8.27;73.29;101084.34;10416972;28;20506;-62
2023/12/06 04:54:58;;;;;;;1999.90;999.90;;;;;;;7.78;76.52;101079.44;10399490;28;20075;-61
2023/12/06 05:00:00;;;;;;;1999.90;999.90;;;;;;;7.95;75.28;101081.34;10416659;28;20522;-61
2023/12/06 05:05:04;;;;;;;1999.90;999.90;;;;;;;7.81;75.25;101082.75;10416704;28;20049;-62
2023/12/06 05:10:08;;;;;;;1999.90;999.90;;;;;;;7.96;75.84;101096.91;10416183;28;20068;-62
2023/12/06 05:15:10;;;;;;;1999.90;999.90;;;;;;;8.21;72.76;101095.88;10416174;28;20488;-64
2023/12/06 05:20:13;;;;;;;1999.90;999.90;;;;;;;8.42;73.64;101099.31;10414918;28;20124;-62
2023/12/06 05:25:15;;;;;;;1999.90;999.90;;;;;;;8.08;74.25;101097.31;10415913;28;20045;-63
2023/12/06 05:30:18;;;;;;;1999.90;999.90;;;;;;;7.96;76.90;101107.34;10415552;28;20052;-62
2023/12/06 05:35:20;;;;;;;1999.90;999.90;;;;;;;8.13;76.36;101116.22;10414877;28;20129;-62
2023/12/06 05:40:22;;;;;;;1999.90;999.90;;;;;;;7.92;76.48;101112.78;10414476;28;20052;-62
2023/12/06 05:45:25;;;;;;;1999.90;999.90;;;;;;;7.86;77.93;101111.25;10415315;28;20057;-63
2023/12/06 05:50:27;;;;;;;1999.90;999.90;;;;;;;8.36;76.58;101120.47;10415001;28;20049;-62
2023/12/06 05:55:30;;;;;;;1999.90;999.90;;;;;;;8.41;75.78;101122.91;10414982;28;20493;-61
2023/12/06 06:00:32;;;;;;;1999.90;999.90;;;;;;;8.72;73.84;101122.41;10414922;28;20045;-62
2023/12/06 06:05:34;;;;;;;1999.90;999.90;;;;;;;8.83;75.55;101130.63;10415077;28;20127;-62
2023/12/06 06:10:37;;;;;;;1999.90;999.90;;;;;;;8.88;73.71;101133.03;10414550;28;20080;-62
2023/12/06 06:15:39;;;;;;;1999.90;999.90;;;;;;;8.72;73.14;101143.31;10414915;28;20100;-62
2023/12/06 06:20:42;;;;;;;1999.90;999.90;;;;;;;8.74;74.94;101138.84;10414759;28;20049;-62
2023/12/06 06:25:44;;;;;;;1999.90;999.90;;;;;;;8.91;73.47;101145.97;10414447;28;20049;-62
2023/12/06 06:30:47;;;;;;;1999.90;999.90;;;;;;;9.38;71.84;101134.22;10414392;28;20068;-62
2023/12/06 06:35:49;;;;;;;1999.90;999.90;;;;;;;9.72;71.47;101145.72;10414414;28;20053;-62
2023/12/06 06:40:51;;;;;;;1999.90;999.90;;;;;;;9.59;71.47;101151.50;10414473;28;20124;-62
2023/12/06 06:45:54;;;;;;;1999.90;999.90;;;;;;;9.59;71.22;101161.13;10417614;28;20080;-62
2023/12/06 06:50:56;;;;;;;1999.90;999.90;;;;;;;9.19;73.14;101170.81;10421662;28;20057;-62
2023/12/06 06:55:59;;;;;;;1999.90;999.90;;;;;;;9.19;71.96;101176.03;10421728;28;20082;-62
2023/12/06 07:01:01;;;;;;;1999.90;999.90;;;;;;;8.80;76.10;101179.53;10421472;28;20132;-62
2023/12/06 07:06:04;;;;;;;1999.90;999.90;;;;;;;8.72;76.29;101182.47;10421104;28;20443;-62
2023/12/06 07:11:07;;;;;;;1999.90;999.90;;;;;;;9.38;74.49;101194.31;10420759;28;20080;-62
2023/12/06 07:16:10;;;;;;;1999.90;999.90;;;;;;;9.10;73.93;101195.59;10403663;28;20076;-62
2023/12/06 07:21:12;;;;;;;1999.90;999.90;;;;;;;9.28;73.75;101201.75;10420606;28;20476;-62
2023/12/06 07:26:15;;;;;;;1999.90;999.90;;;;;;;9.06;75.81;101200.13;10420364;28;20128;-62
2023/12/06 07:31:18;;;;;;;1999.90;999.90;;;;;;;9.67;73.12;101196.44;10420130;28;20467;-62
2023/12/06 07:36:21;;;;;;;1999.90;999.90;;;;;;;9.66;71.61;101205.19;10420105;28;20077;-63
2023/12/06 07:41:24;;;;;;;1999.90;999.90;;;;;;;9.83;72.10;101214.00;10420075;28;20144;-64
2023/12/06 07:46:26;;;;;;;1999.90;999.90;;;;;;;9.80;71.79;101229.84;10419603;28;20051;-64
2023/12/06 07:51:29;;;;;;;1999.90;999.90;;;;;;;9.79;71.08;101234.25;10419631;28;20128;-64
2023/12/06 07:56:31;;;;;;;1999.90;999.90;;;;;;;9.57;73.19;101242.25;10418511;28;20056;-64
2023/12/06 08:01:33;;;;;;;1999.90;999.90;;;;;;;9.34;73.91;101258.97;10417846;28;20124;-64
2023/12/06 08:06:36;;;;;;;1999.90;999.90;;;;;;;9.19;74.41;101254.41;10418812;28;20049;-64
2023/12/06 08:11:39;;;;;;;1999.90;999.90;;;;;;;9.84;71.55;101255.78;10418369;28;20057;-65
2023/12/06 08:16:41;;;;;;;1999.90;999.90;;;;;;;9.60;72.26;101252.56;10418584;28;20077;-64
2023/12/06 08:21:44;;;;;;;1999.90;999.90;;;;;;;9.51;72.35;101258.19;10418105;28;20049;-64
2023/12/06 08:26:46;;;;;;;1999.90;999.90;;;;;;;9.32;73.15;101259.97;10417022;28;20059;-64
2023/12/06 08:31:49;;;;;;;1999.90;999.90;;;;;;;9.72;71.07;101263.38;10417882;28;20045;-64
2023/12/06 08:36:51;;;;;;;1999.90;999.90;;;;;;;9.96;70.46;101267.44;10417559;28;20551;-64
2023/12/06 08:41:53;;;;;;;1999.90;999.90;;;;;;;9.99;70.36;101271.69;10417449;28;20049;-64
2023/12/06 08:46:57;;;;;;;1999.90;999.90;;;;;;;10.57;68.61;101274.13;10417234;28;20128;-64
2023/12/06 08:51:59;;;;;;;1999.90;999.90;;;;;;;10.78;67.80;101273.97;10416906;28;20485;-64
2023/12/06 08:57:02;;;;;;;1999.90;999.90;;;;;;;9.85;69.50;101277.53;10416956;28;20077;-64
2023/12/06 09:02:04;;;;;;;1999.90;999.90;;;;;;;10.57;67.99;101284.59;10416743;28;20128;-64
2023/12/06 09:07:07;;;;;;;1999.90;999.90;;;;;;;10.29;69.54;101286.81;10416081;28;20085;-64
2023/12/06 09:12:10;;;;;;;1999.90;999.90;;;;;;;10.34;68.90;101284.84;10416186;28;20543;-64
2023/12/06 09:17:12;;;;;;;1999.90;999.90;;;;;;;11.14;66.53;101291.34;10416012;28;20559;-64
2023/12/06 09:22:15;;;;;;;1999.90;999.90;;;;;;;11.04;66.60;101303.22;10415935;28;20049;-64
2023/12/06 09:27:21;;;;;;;1999.90;999.90;;;;;;;10.52;67.32;101309.31;10416128;28;20107;-64
2023/12/06 09:32:24;;;;;;;1999.90;999.90;;;;;;;10.67;67.29;101311.16;10414592;28;20051;-64
2023/12/06 09:37:27;;;;;;;1999.90;999.90;;;;;;;11.09;66.66;101317.78;10415571;28;20103;-64
2023/12/06 09:42:29;;;;;;;1999.90;999.90;;;;;;;10.89;67.08;101320.56;10415481;28;20547;-64
2023/12/06 09:47:32;;;;;;;1999.90;999.90;;;;;;;11.14;66.99;101322.78;10414124;28;20064;-64
2023/12/06 09:52:35;;;;;;;1999.90;999.90;;;;;;;10.64;67.57;101328.81;10397944;28;20048;-64
2023/12/06 09:57:37;;;;;;;1999.90;999.90;;;;;;;10.80;67.28;101334.16;10415137;28;20049;-64
2023/12/06 10:02:57;;;;;;;1999.90;999.90;;;;;;;10.56;69.38;101324.78;10414925;28;20133;-65
2023/12/06 10:08:00;;;;;;;1999.90;999.90;;;;;;;10.80;66.93;101336.75;10413592;28;20416;-65
2023/12/06 10:13:03;;;;;;;1999.90;999.90;;;;;;;10.53;68.03;101340.66;10414644;28;20050;-65
2023/12/06 10:18:05;;;;;;;1999.90;999.90;;;;;;;10.67;67.61;101333.88;10413624;28;20083;-66
2023/12/06 10:23:12;;;;;;;1999.90;999.90;;;;;;;11.01;66.04;101340.94;10421942;28;20045;-65
2023/12/06 10:28:15;;;;;;;1999.90;999.90;;;;;;;10.63;66.82;101343.66;10422942;28;20045;-65
2023/12/06 10:33:19;;;;;;;1999.90;999.90;;;;;;;11.41;65.73;101357.22;10421263;28;20049;-65
2023/12/06 10:38:22;;;;;;;1999.90;999.90;;;;;;;11.09;64.58;101349.22;10421407;28;20126;-65
2023/12/06 10:43:27;;;;;;;1999.90;999.90;;;;;;;10.92;66.11;101354.47;10422254;28;20045;-66
2023/12/06 10:48:30;;;;;;;1999.90;999.90;;;;;;;10.79;66.13;101349.00;10420848;28;20053;-65
2023/12/06 10:53:33;;;;;;;1999.90;999.90;;;;;;;11.03;64.63;101346.94;10420635;28;20076;-65
2023/12/06 10:58:36;;;;;;;1999.90;999.90;;;;;;;11.84;63.06;101348.88;10420258;28;20392;-65
2023/12/06 11:03:38;;;;;;;1999.90;999.90;;;;;;;12.05;63.53;101342.50;10420328;28;20100;-65
2023/12/06 11:09:05;;;;;;;1999.90;999.90;;;;;;;11.90;63.42;101338.03;10403327;28;20103;-65
2023/12/06 11:14:30;;;;;;;1999.90;999.90;;;;;;;11.07;64.22;101324.03;10420167;28;20133;-65
2023/12/06 11:19:34;;;;;;;1999.90;999.90;;;;;;;11.82;62.86;101333.22;10419569;28;20056;-65
2023/12/06 11:24:37;;;;;;;1999.90;999.90;;;;;;;10.83;65.00;101342.69;10419646;28;20056;-65
2023/12/06 11:29:39;;;;;;;1999.90;999.90;;;;;;;11.02;64.12;101333.91;10420299;28;20096;-65
2023/12/06 11:34:42;;;;;;;1999.90;999.90;;;;;;;11.52;62.63;101330.44;10417626;28;20132;-65
2023/12/06 11:40:07;;;;;;;1999.90;999.90;;;;;;;10.99;63.78;101339.31;10420044;28;20054;-65
2023/12/06 11:45:29;;;;;;;1999.90;999.90;;;;;;;13.13;59.36;101340.72;10419821;28;20057;-65
2023/12/06 11:50:45;;;;;;;1999.90;999.90;;;;;;;12.07;61.84;101359.00;10419494;28;20050;-65
2023/12/06 11:55:48;;;;;;;1999.90;999.90;;;;;;;11.48;62.10;101353.38;10419396;28;20484;-65
2023/12/06 12:00:51;;;;;;;1999.90;999.90;;;;;;;11.07;63.69;101348.47;10419150;28;20120;-65
2023/12/06 12:05:55;;;;;;;1999.90;999.90;;;;;;;11.28;64.02;101349.16;10417761;28;20095;-65
2023/12/06 12:10:58;;;;;;;1999.90;999.90;;;;;;;11.70;61.14;101350.44;10417330;28;20055;-65
2023/12/06 12:16:03;;;;;;;1999.90;999.90;;;;;;;12.25;60.80;101357.13;10417422;28;20053;-65
2023/12/06 12:21:10;;;;;;;1999.90;999.90;;;;;;;12.33;61.46;101351.44;10417849;28;20080;-65
2023/12/06 12:26:15;;;;;;;1999.90;999.90;;;;;;;11.36;62.23;101359.22;10416951;28;20409;-65
2023/12/06 12:31:20;;;;;;;1999.90;999.90;;;;;;;12.23;60.37;101356.34;10416868;28;20052;-65
2023/12/06 12:36:23;;;;;;;1999.90;999.90;;;;;;;11.30;60.68;101362.19;10416644;28;20056;-65
2023/12/06 12:41:30;;;;;;;1999.90;999.90;;;;;;;11.52;61.56;101356.66;10416490;28;20041;-65
2023/12/06 12:46:35;;;;;;;1999.90;999.90;;;;;;;11.48;61.56;101352.50;10417103;28;20451;-65
2023/12/06 12:51:46;;;;;;;1999.90;999.90;;;;;;;10.95;61.82;101356.94;10401221;28;20052;-65
2023/12/06 12:56:49;;;;;;;1999.90;999.90;;;;;;;11.11;61.46;101362.25;10415762;28;20049;-65
2023/12/06 13:01:51;;;;;;;1999.90;999.90;;;;;;;11.52;61.19;101357.50;10415527;28;20392;-65
2023/12/06 13:06:54;;;;;;;1999.90;999.90;;;;;;;11.69;60.62;101359.25;10416743;28;20049;-65
2023/12/06 13:11:56;;;;;;;1999.90;999.90;;;;;;;12.13;60.87;101362.22;10414926;28;20559;-65
2023/12/06 13:17:01;;;;;;;1999.90;999.90;;;;;;;11.36;61.19;101361.00;10415101;28;20510;-65
2023/12/06 13:22:04;;;;;;;1999.90;999.90;;;;;;;11.46;61.06;101373.56;10414863;28;20048;-65
2023/12/06 13:27:19;;;;;;;1999.90;999.90;;;;;;;11.06;63.43;101385.22;10416149;28;20049;-65
2023/12/06 13:32:22;;;;;;;1999.90;999.90;;;;;;;10.84;63.61;101385.44;10415732;28;20107;-65
2023/12/06 13:37:24;;;;;;;1999.90;999.90;;;;;;;10.67;64.94;101375.78;10415450;28;20115;-65
2023/12/06 13:42:27;;;;;;;1999.90;999.90;;;;;;;11.16;63.07;101373.34;10415757;28;20060;-65
2023/12/06 13:47:29;;;;;;;1999.90;999.90;;;;;;;11.73;61.55;101387.94;10415139;28;20049;-65
2023/12/06 13:52:32;;;;;;;1999.90;999.90;;;;;;;10.41;63.69;101401.47;10415049;28;20045;-65
2023/12/06 13:57:34;;;;;;;1999.90;999.90;;;;;;;10.74;63.90;101393.75;10414057;28;20561;-65
2023/12/06 14:02:37;;;;;;;1999.90;999.90;;;;;;;10.59;63.83;101390.13;10415216;28;20045;-65
2023/12/06 14:07:39;;;;;;;1999.90;999.90;;;;;;;10.44;64.30;101395.22;10413810;28;20065;-65
2023/12/06 14:12:41;;;;;;;1999.90;999.90;;;;;;;10.58;63.47;101401.50;10414635;28;20056;-65
2023/12/06 14:17:44;;;;;;;1999.90;999.90;;;;;;;10.05;64.28;101407.41;10414740;28;20096;-65
2023/12/06 14:22:46;;;;;;;1999.90;999.90;;;;;;;10.03;65.01;101414.50;10414390;28;20386;-65
2023/12/06 14:27:49;;;;;;;1999.90;999.90;;;;;;;10.25;65.31;101419.59;10413533;28;20059;-65
2023/12/06 14:32:51;;;;;;;1999.90;999.90;;;;;;;9.61;65.55;101418.94;10414268;28;20079;-65
2023/12/06 14:37:54;;;;;;;1999.90;999.90;;;;;;;9.68;66.67;101424.75;10414249;28;20049;-65
2023/12/06 14:42:56;;;;;;;1999.90;999.90;;;;;;;9.67;66.63;101426.53;10413117;28;20129;-65
2023/12/06 14:47:58;;;;;;;1999.90;999.90;;;;;;;9.76;66.43;101429.66;10414012;28;20442;-65
2023/12/06 14:53:01;;;;;;;1999.90;999.90;;;;;;;9.80;66.61;101428.59;10412766;28;20477;-65
2023/12/06 14:58:03;;;;;;;1999.90;999.90;;;;;;;10.23;64.47;101437.97;10412634;28;20510;-65
2023/12/06 15:03:07;;;;;;;1999.90;999.90;;;;;;;9.75;66.74;101452.34;10413727;28;20489;-65
2023/12/06 15:08:10;;;;;;;1999.90;999.90;;;;;;;10.01;66.25;101459.03;10418714;28;20107;-65
2023/12/06 15:13:13;;;;;;;1999.90;999.90;;;;;;;9.76;66.92;101463.66;10420880;28;20056;-65
2023/12/06 15:18:15;;;;;;;1999.90;999.90;;;;;;;9.27;68.21;101466.59;10420979;28;20049;-65
2023/12/06 15:23:17;;;;;;;1999.90;999.90;;;;;;;9.75;67.47;101475.91;10426524;23;20053;-65
2023/12/06 15:28:20;;;;;;;1999.90;999.90;;;;;;;9.35;69.37;101487.19;10419178;28;20451;-65
2023/12/06 15:33:22;;;;;;;1999.90;999.90;;;;;;;9.43;67.13;101493.78;10418922;28;20485;-65
2023/12/06 15:38:25;;;;;;;1999.90;999.90;;;;;;;9.48;67.54;101506.63;10418894;28;20416;-65
2023/12/06 15:43:27;;;;;;;1999.90;999.90;;;;;;;9.60;66.16;101507.88;10419752;28;20067;-65
2023/12/06 15:48:29;;;;;;;1999.90;999.90;;;;;;;9.02;69.29;101522.41;10419626;28;20056;-65
2023/12/06 15:53:32;;;;;;;1999.90;999.90;;;;;;;9.37;68.36;101519.31;10419567;28;20045;-65
2023/12/06 15:58:34;;;;;;;1999.90;999.90;;;;;;;9.01;68.32;101528.56;10419099;28;20514;-65
2023/12/06 16:03:37;;;;;;;1999.90;999.90;;;;;;;9.15;69.13;101521.97;10419310;28;20042;-65
2023/12/06 16:08:50;;;;;;;1999.90;999.90;;;;;;;8.98;69.44;101527.81;10418961;28;20129;-65
2023/12/06 16:13:53;;;;;;;1999.90;999.90;;;;;;;9.16;69.66;101534.94;10407909;28;20049;-65
2023/12/06 16:18:55;;;;;;;1999.90;999.90;;;;;;;8.83;68.95;101548.41;10380103;28;20460;-65
2023/12/06 16:23:59;;;;;;;1999.90;999.90;;;;;;;9.03;69.34;101550.25;10395399;28;20140;-65
2023/12/06 16:29:02;;;;;;;1999.90;999.90;;;;;;;9.28;68.03;101554.53;10418026;28;20066;-65
2023/12/06 16:34:04;;;;;;;1999.90;999.90;;;;;;;8.76;68.99;101561.75;10417732;28;20152;-65
2023/12/06 16:39:10;;;;;;;1999.90;999.90;;;;;;;8.90;69.23;101568.16;10417673;28;20053;-65
2023/12/06 16:44:13;;;;;;;1999.90;999.90;;;;;;;9.32;67.43;101570.94;10417724;28;20049;-65
2023/12/06 16:49:17;;;;;;;1999.90;999.90;;;;;;;9.11;67.36;101582.16;10417457;28;20055;-65
2023/12/06 16:54:19;;;;;;;1999.90;999.90;;;;;;;8.78;67.99;101589.50;10416113;28;20041;-65
2023/12/06 16:59:21;;;;;;;1999.90;999.90;;;;;;;8.93;67.30;101586.31;10416907;28;20077;-65
2023/12/06 17:04:24;;;;;;;1999.90;999.90;;;;;;;8.63;69.43;101595.31;10416951;28;20050;-65
2023/12/06 17:09:27;;;;;;;1999.90;999.90;;;;;;;8.58;70.55;101592.00;10415459;28;20049;-65
2023/12/06 17:14:30;;;;;;;1999.90;999.90;;;;;;;8.08;72.04;101593.69;10415293;28;20124;-65
2023/12/06 17:19:32;;;;;;;1999.90;999.90;;;;;;;8.68;69.83;101590.75;10416466;28;20051;-65
2023/12/06 17:24:35;;;;;;;1999.90;999.90;;;;;;;8.59;70.58;101591.94;10414764;28;20136;-65
2023/12/06 17:29:40;;;;;;;1999.90;999.90;;;;;;;8.51;69.94;101600.03;10415768;28;20508;-65
2023/12/06 17:34:43;;;;;;;1999.90;999.90;;;;;;;8.49;71.63;101612.31;10415423;28;20049;-65
2023/12/06 17:39:46;;;;;;;1999.90;999.90;;;;;;;8.40;71.26;101616.97;10414968;28;20056;-65
2023/12/06 17:44:49;;;;;;;1999.90;999.90;;;;;;;8.54;70.88;101641.72;10414114;28;20107;-65
2023/12/06 17:49:51;;;;;;;1999.90;999.90;;;;;;;8.92;70.95;101642.06;10415658;28;20057;-65
2023/12/06 17:54:54;;;;;;;1999.90;999.90;;;;;;;8.58;71.79;101641.59;10415287;28;20111;-65
2023/12/06 17:59:56;;;;;;;1999.90;999.90;;;;;;;8.60;69.92;101648.44;10414988;28;20053;-65
2023/12/06 18:04:58;;;;;;;1999.90;999.90;;;;;;;8.40;71.75;101651.72;10414932;28;20077;-65
2023/12/06 18:10:03;;;;;;;1999.90;999.90;;;;;;;8.65;69.60;101654.38;10413580;28;20099;-65
2023/12/06 18:15:06;;;;;;;1999.90;999.90;;;;;;;8.54;70.84;101656.53;10413829;28;20050;-65
2023/12/06 18:20:09;;;;;;;1999.90;999.90;;;;;;;8.66;70.96;101656.06;10397260;28;20050;-65
2023/12/06 18:25:11;;;;;;;1999.90;999.90;;;;;;;8.84;69.88;101671.97;10414113;28;20456;-65
2023/12/06 18:30:14;;;;;;;1999.90;999.90;;;;;;;7.97;70.18;101680.13;10414542;28;20049;-65
2023/12/06 18:35:20;;;;;;;1999.90;999.90;;;;;;;8.00;70.92;101664.38;10414355;28;20060;-65
2023/12/06 18:40:23;;;;;;;1999.90;999.90;;;;;;;8.51;68.87;101665.28;10415576;28;20053;-65
2023/12/06 18:45:26;;;;;;;1999.90;999.90;;;;;;;8.10;69.31;101672.75;10421987;28;20049;-65
2023/12/06 18:50:29;;;;;;;1999.90;999.90;;;;;;;8.29;70.44;101677.34;10420641;28;20451;-65
2023/12/06 18:55:31;;;;;;;1999.90;999.90;;;;;;;8.38;68.45;101682.25;10421889;28;20053;-65
2023/12/06 19:00:34;;;;;;;1999.90;999.90;;;;;;;7.94;71.00;101698.47;10421465;28;20119;-65
2023/12/06 19:05:38;;;;;;;1999.90;999.90;;;;;;;8.65;69.58;101693.53;10421290;28;20072;-65
2023/12/06 19:10:40;;;;;;;1999.90;999.90;;;;;;;8.10;70.46;101705.78;10421197;28;20129;-65
2023/12/06 19:15:43;;;;;;;1999.90;999.90;;;;;;;7.90;70.58;101711.63;10421220;28;20131;-65
2023/12/06 19:20:45;;;;;;;1999.90;999.90;;;;;;;8.37;70.38;101709.25;10420782;28;20079;-65
2023/12/06 19:25:48;;;;;;;1999.90;999.90;;;;;;;8.06;72.35;101715.47;10419339;28;20571;-65
2023/12/06 19:30:53;;;;;;;1999.90;999.90;;;;;;;7.73;72.88;101723.47;10419326;28;20049;-65
2023/12/06 19:35:55;;;;;;;1999.90;999.90;;;;;;;8.16;73.04;101719.47;10420333;28;20056;-65
2023/12/06 19:40:58;;;;;;;1999.90;999.90;;;;;;;8.03;72.76;101717.34;10419071;28;20084;-65
2023/12/06 19:46:00;;;;;;;1999.90;999.90;;;;;;;8.02;74.15;101724.31;10419776;28;20060;-65
2023/12/06 19:51:04;;;;;;;1999.90;999.90;;;;;;;7.81;73.32;101721.44;10419498;28;20048;-65
2023/12/06 19:56:07;;;;;;;1999.90;999.90;;;;;;;7.93;73.18;101729.81;10418805;28;20053;-65
2023/12/06 20:01:09;;;;;;;1999.90;999.90;;;;;;;7.72;72.91;101733.94;10418046;28;20084;-65
2023/12/06 20:06:12;;;;;;;1999.90;999.90;;;;;;;7.81;73.12;101738.84;10419246;28;20053;-65
2023/12/06 20:11:17;;;;;;;1999.90;999.90;;;;;;;7.65;71.19;101740.22;10418731;28;20068;-65
2023/12/06 20:16:19;;;;;;;1999.90;999.90;;;;;;;7.51;73.83;101740.63;10418644;28;20053;-65
2023/12/06 20:21:24;;;;;;;1999.90;999.90;;;;;;;8.33;71.11;101747.63;10418162;28;20065;-65
2023/12/06 20:26:26;;;;;;;1999.90;999.90;;;;;;;8.29;70.01;101748.66;10418552;28;20083;-65
2023/12/06 20:31:29;;;;;;;1999.90;999.90;;;;;;;8.34;70.85;101757.19;10418136;28;20052;-65
2023/12/06 20:36:31;;;;;;;1999.90;999.90;;;;;;;7.81;72.10;101752.75;10417793;28;20412;-65
2023/12/06 20:41:34;;;;;;;1999.90;999.90;;;;;;;8.04;71.82;101759.00;10416403;28;20084;-65
2023/12/06 20:46:36;;;;;;;1999.90;999.90;;;;;;;8.25;72.40;101769.66;10417467;28;20129;-65
2023/12/06 20:51:40;;;;;;;1999.90;999.90;;;;;;;8.48;70.78;101761.97;10416151;28;20083;-66
2023/12/06 20:56:43;;;;;;;1999.90;999.90;;;;;;;8.10;72.01;101764.06;10415882;28;20474;-66
2023/12/06 21:01:45;;;;;;;1999.90;999.90;;;;;;;8.14;70.68;101768.25;10417215;28;20042;-67
2023/12/06 21:06:48;;;;;;;1999.90;999.90;;;;;;;8.18;71.39;101761.19;10416419;28;20132;-67
2023/12/06 21:11:50;;;;;;;1999.90;999.90;;;;;;;7.60;69.56;101761.22;10416474;28;20084;-65
2023/12/06 21:16:53;;;;;;;1999.90;999.90;;;;;;;7.80;70.75;101763.22;10415313;28;20129;-65
2023/12/06 21:21:55;;;;;;;1999.90;999.90;;;;;;;7.46;72.06;101758.16;10415929;28;20411;-65
2023/12/06 21:26:58;;;;;;;1999.90;999.90;;;;;;;7.75;71.92;101765.09;10415978;28;20053;-65
2023/12/06 21:32:00;;;;;;;1999.90;999.90;;;;;;;7.53;73.15;101776.19;10415741;28;20088;-65
2023/12/06 21:37:03;;;;;;;1999.90;999.90;;;;;;;7.87;71.23;101763.88;10415814;28;20125;-65
2023/12/06 21:42:06;;;;;;;1999.90;999.90;;;;;;;7.92;70.86;101764.63;10415637;28;20046;-65
2023/12/06 21:47:08;;;;;;;1999.90;999.90;;;;;;;8.04;70.32;101766.84;10415323;28;20079;-65
2023/12/06 21:52:10;;;;;;;1999.90;999.90;;;;;;;7.77;72.01;101768.53;10415462;28;20051;-65
2023/12/06 21:57:13;;;;;;;1999.90;999.90;;;;;;;7.39;72.75;101768.75;10415184;28;20045;-65
2023/12/06 22:02:15;;;;;;;1999.90;999.90;;;;;;;7.42;74.00;101776.47;10414181;28;20046;-65
2023/12/06 22:07:17;;;;;;;1999.90;999.90;;;;;;;7.52;70.78;101778.84;10413945;28;20060;-65